< Typhoon 196521 1965 Season Typhoon 196523 >
Typhoon 196522 (ROSE)
General InformationTrack Information on Google Maps || Disaster Info.ResourceGoogle EarthGE AnimationAtom FeedGeoJSON
Detalied Best Track (Time Zone = UTC)
Year Month Day Hour Lat. Long. Pressure (hPa) Wind (kt) Class Image Chart
1965 8 30 00 15.1 138.8 1004 0 2 -- Chart
1965 8 30 06 15.2 138.0 1004 0 2 -- Chart
1965 8 30 12 15.3 137.2 1004 0 2 -- Chart
1965 8 30 18 15.3 135.5 1002 0 2 -- Chart
1965 8 31 00 15.3 133.7 1002 0 2 -- Chart
1965 8 31 06 15.5 132.0 1000 0 2 -- Chart
1965 8 31 12 15.8 130.8 1000 0 2 -- Chart
1965 8 31 18 16.1 129.8 998 0 9 -- Chart
1965 9 1 00 16.4 128.7 994 0 9 -- Chart
1965 9 1 06 16.7 127.7 990 0 9 -- Chart
1965 9 1 12 17.1 126.7 985 0 9 -- Chart
1965 9 1 18 17.3 125.6 985 0 9 -- Chart
1965 9 2 00 17.7 124.6 980 0 9 -- Chart
1965 9 2 06 18.1 123.6 980 0 9 -- Chart
1965 9 2 12 18.5 122.6 985 0 9 -- Chart
1965 9 2 18 18.8 121.6 990 0 9 -- Chart
1965 9 3 00 19.2 120.5 995 0 9 -- Chart
1965 9 3 06 19.3 119.6 990 0 9 -- Chart
1965 9 3 12 19.4 118.7 990 0 9 -- Chart
1965 9 3 18 19.5 117.8 990 0 9 -- Chart
1965 9 4 00 19.6 116.5 990 0 9 -- Chart
1965 9 4 06 19.8 115.4 985 0 9 -- Chart
1965 9 4 12 20.1 114.3 985 0 9 -- Chart
1965 9 4 18 20.4 113.2 985 0 9 -- Chart
1965 9 5 00 20.9 112.1 985 0 9 -- Chart
1965 9 5 06 21.4 111.1 990 0 9 -- Chart
1965 9 5 12 21.5 109.9 994 0 9 -- Chart
1965 9 5 18 21.6 108.5 994 0 9 -- Chart
1965 9 6 00 21.7 107.2 998 0 2 -- Chart
1965 9 6 06 20.8 106.3 1000 0 2 -- Chart
1965 9 6 12 20.0 105.0 1002 0 2 -- Chart
1965 9 6 18 20.0 103.7 1002 0 2 -- Chart
Japan Meteorological Agency Best Track Data | Correction Date : 1989-06-01
< Typhoon 196521 1965 Season Typhoon 196523 >

Help